sensor_id;sensor_type;location;lat;lon;timestamp;P1;durP1;ratioP1;P2;durP2;ratioP2
51499;SDS011;39101;53.478;6.158;2022-08-19T00:01:47;6.22;;;3.60;;
51499;SDS011;39101;53.478;6.158;2022-08-19T00:04:17;7.85;;;3.78;;
51499;SDS011;39101;53.478;6.158;2022-08-19T00:06:46;5.82;;;3.10;;
51499;SDS011;39101;53.478;6.158;2022-08-19T00:09:14;6.35;;;3.20;;
51499;SDS011;39101;53.478;6.158;2022-08-19T00:11:44;7.97;;;3.05;;
51499;SDS011;39101;53.478;6.158;2022-08-19T00:14:13;8.20;;;3.58;;
51499;SDS011;39101;53.478;6.158;2022-08-19T00:16:42;6.50;;;3.22;;
51499;SDS011;39101;53.478;6.158;2022-08-19T00:19:13;7.13;;;3.90;;
51499;SDS011;39101;53.478;6.158;2022-08-19T00:21:39;8.95;;;3.03;;
51499;SDS011;39101;53.478;6.158;2022-08-19T00:24:10;6.03;;;3.03;;
51499;SDS011;39101;53.478;6.158;2022-08-19T00:26:42;7.25;;;2.80;;
51499;SDS011;39101;53.478;6.158;2022-08-19T00:29:09;6.35;;;2.72;;
51499;SDS011;39101;53.478;6.158;2022-08-19T00:31:37;9.00;;;3.10;;
51499;SDS011;39101;53.478;6.158;2022-08-19T00:34:03;6.70;;;3.38;;
51499;SDS011;39101;53.478;6.158;2022-08-19T00:36:29;5.75;;;3.03;;
51499;SDS011;39101;53.478;6.158;2022-08-19T00:38:56;6.68;;;3.08;;
51499;SDS011;39101;53.478;6.158;2022-08-19T00:41:22;7.88;;;3.15;;
51499;SDS011;39101;53.478;6.158;2022-08-19T00:46:29;5.93;;;2.67;;
51499;SDS011;39101;53.478;6.158;2022-08-19T00:48:56;6.68;;;2.90;;
51499;SDS011;39101;53.478;6.158;2022-08-19T00:51:23;6.25;;;2.78;;
51499;SDS011;39101;53.478;6.158;2022-08-19T00:53:51;8.90;;;2.75;;
51499;SDS011;39101;53.478;6.158;2022-08-19T00:56:19;7.63;;;2.88;;
51499;SDS011;39101;53.478;6.158;2022-08-19T00:58:44;7.47;;;3.28;;
51499;SDS011;39101;53.478;6.158;2022-08-19T01:01:10;6.65;;;3.00;;
51499;SDS011;39101;53.478;6.158;2022-08-19T01:03:37;8.07;;;3.30;;
51499;SDS011;39101;53.478;6.158;2022-08-19T01:06:04;11.35;;;3.63;;
51499;SDS011;39101;53.478;6.158;2022-08-19T01:08:30;6.05;;;2.90;;
51499;SDS011;39101;53.478;6.158;2022-08-19T01:10:57;9.30;;;2.92;;
51499;SDS011;39101;53.478;6.158;2022-08-19T01:13:25;8.48;;;3.53;;
51499;SDS011;39101;53.478;6.158;2022-08-19T01:15:56;6.82;;;2.88;;
51499;SDS011;39101;53.478;6.158;2022-08-19T01:20:54;9.60;;;3.10;;
51499;SDS011;39101;53.478;6.158;2022-08-19T01:23:23;7.95;;;2.55;;
51499;SDS011;39101;53.478;6.158;2022-08-19T01:26:08;5.70;;;3.00;;
51499;SDS011;39101;53.478;6.158;2022-08-19T01:28:43;8.13;;;2.65;;
51499;SDS011;39101;53.478;6.158;2022-08-19T01:31:13;5.55;;;2.60;;
51499;SDS011;39101;53.478;6.158;2022-08-19T01:33:41;7.18;;;3.10;;
51499;SDS011;39101;53.478;6.158;2022-08-19T01:36:09;9.73;;;2.70;;
51499;SDS011;39101;53.478;6.158;2022-08-19T01:41:04;9.57;;;3.38;;
51499;SDS011;39101;53.478;6.158;2022-08-19T01:43:32;6.65;;;2.70;;
51499;SDS011;39101;53.478;6.158;2022-08-19T01:45:58;7.53;;;2.63;;
51499;SDS011;39101;53.478;6.158;2022-08-19T01:48:25;5.65;;;2.67;;
51499;SDS011;39101;53.478;6.158;2022-08-19T01:50:51;8.23;;;3.42;;
51499;SDS011;39101;53.478;6.158;2022-08-19T01:53:17;8.85;;;4.07;;
51499;SDS011;39101;53.478;6.158;2022-08-19T01:55:43;8.20;;;3.83;;
51499;SDS011;39101;53.478;6.158;2022-08-19T01:58:13;10.27;;;4.10;;
51499;SDS011;39101;53.478;6.158;2022-08-19T02:00:44;8.15;;;3.67;;
51499;SDS011;39101;53.478;6.158;2022-08-19T02:03:12;8.00;;;4.40;;
51499;SDS011;39101;53.478;6.158;2022-08-19T02:05:38;8.77;;;4.18;;
51499;SDS011;39101;53.478;6.158;2022-08-19T02:08:05;9.85;;;4.00;;
51499;SDS011;39101;53.478;6.158;2022-08-19T02:10:32;8.13;;;4.10;;
51499;SDS011;39101;53.478;6.158;2022-08-19T02:12:58;7.95;;;3.97;;
51499;SDS011;39101;53.478;6.158;2022-08-19T02:15:27;6.40;;;3.85;;
51499;SDS011;39101;53.478;6.158;2022-08-19T02:17:52;6.63;;;4.63;;
51499;SDS011;39101;53.478;6.158;2022-08-19T02:20:18;9.80;;;5.60;;
51499;SDS011;39101;53.478;6.158;2022-08-19T02:22:44;10.20;;;5.90;;
51499;SDS011;39101;53.478;6.158;2022-08-19T02:25:11;9.13;;;6.18;;
51499;SDS011;39101;53.478;6.158;2022-08-19T02:27:38;8.88;;;4.68;;
51499;SDS011;39101;53.478;6.158;2022-08-19T02:30:05;8.68;;;5.80;;
51499;SDS011;39101;53.478;6.158;2022-08-19T02:32:33;11.85;;;6.18;;
51499;SDS011;39101;53.478;6.158;2022-08-19T02:34:59;13.15;;;9.30;;
51499;SDS011;39101;53.478;6.158;2022-08-19T02:37:24;10.50;;;8.25;;
51499;SDS011;39101;53.478;6.158;2022-08-19T02:40:09;12.43;;;6.70;;
51499;SDS011;39101;53.478;6.158;2022-08-19T02:42:35;10.02;;;5.68;;
51499;SDS011;39101;53.478;6.158;2022-08-19T02:45:01;11.50;;;6.10;;
51499;SDS011;39101;53.478;6.158;2022-08-19T02:47:29;9.50;;;5.88;;
51499;SDS011;39101;53.478;6.158;2022-08-19T02:49:55;8.95;;;5.20;;
51499;SDS011;39101;53.478;6.158;2022-08-19T02:52:20;9.05;;;5.32;;
51499;SDS011;39101;53.478;6.158;2022-08-19T02:54:48;10.70;;;5.38;;
51499;SDS011;39101;53.478;6.158;2022-08-19T02:57:14;9.63;;;5.45;;
51499;SDS011;39101;53.478;6.158;2022-08-19T02:59:40;7.97;;;6.25;;
51499;SDS011;39101;53.478;6.158;2022-08-19T03:02:05;9.15;;;5.25;;
51499;SDS011;39101;53.478;6.158;2022-08-19T03:04:33;13.35;;;6.07;;
51499;SDS011;39101;53.478;6.158;2022-08-19T03:07:02;9.95;;;6.75;;
51499;SDS011;39101;53.478;6.158;2022-08-19T03:09:28;10.48;;;7.30;;
51499;SDS011;39101;53.478;6.158;2022-08-19T03:11:55;9.50;;;6.47;;
51499;SDS011;39101;53.478;6.158;2022-08-19T03:14:21;9.85;;;6.93;;
51499;SDS011;39101;53.478;6.158;2022-08-19T03:16:49;9.88;;;7.22;;
51499;SDS011;39101;53.478;6.158;2022-08-19T03:19:17;9.15;;;7.78;;
51499;SDS011;39101;53.478;6.158;2022-08-19T03:21:51;13.73;;;9.30;;
51499;SDS011;39101;53.478;6.158;2022-08-19T03:24:18;14.80;;;9.52;;
51499;SDS011;39101;53.478;6.158;2022-08-19T03:26:49;13.77;;;8.00;;
51499;SDS011;39101;53.478;6.158;2022-08-19T03:29:21;10.45;;;8.85;;
51499;SDS011;39101;53.478;6.158;2022-08-19T03:31:47;13.32;;;10.50;;
51499;SDS011;39101;53.478;6.158;2022-08-19T03:34:17;14.73;;;9.98;;
51499;SDS011;39101;53.478;6.158;2022-08-19T03:36:45;13.93;;;8.52;;
51499;SDS011;39101;53.478;6.158;2022-08-19T03:39:12;12.15;;;8.35;;
51499;SDS011;39101;53.478;6.158;2022-08-19T03:41:41;11.20;;;8.27;;
51499;SDS011;39101;53.478;6.158;2022-08-19T03:44:09;11.60;;;8.20;;
51499;SDS011;39101;53.478;6.158;2022-08-19T03:46:35;12.40;;;8.00;;
51499;SDS011;39101;53.478;6.158;2022-08-19T03:49:02;9.60;;;7.72;;
51499;SDS011;39101;53.478;6.158;2022-08-19T03:51:33;11.15;;;8.32;;
51499;SDS011;39101;53.478;6.158;2022-08-19T03:54:02;10.27;;;7.32;;
51499;SDS011;39101;53.478;6.158;2022-08-19T03:56:33;10.88;;;7.80;;
51499;SDS011;39101;53.478;6.158;2022-08-19T03:59:00;10.80;;;7.47;;
51499;SDS011;39101;53.478;6.158;2022-08-19T04:01:27;10.10;;;7.28;;
51499;SDS011;39101;53.478;6.158;2022-08-19T04:03:57;11.20;;;7.68;;
51499;SDS011;39101;53.478;6.158;2022-08-19T04:06:29;12.50;;;7.40;;
51499;SDS011;39101;53.478;6.158;2022-08-19T04:08:59;10.50;;;7.93;;
51499;SDS011;39101;53.478;6.158;2022-08-19T04:11:31;12.63;;;8.00;;
51499;SDS011;39101;53.478;6.158;2022-08-19T04:13:59;12.60;;;8.73;;
51499;SDS011;39101;53.478;6.158;2022-08-19T04:18:56;10.60;;;8.32;;
51499;SDS011;39101;53.478;6.158;2022-08-19T04:21:25;9.77;;;7.22;;
51499;SDS011;39101;53.478;6.158;2022-08-19T04:23:55;12.35;;;7.80;;
51499;SDS011;39101;53.478;6.158;2022-08-19T04:26:28;12.50;;;8.15;;
51499;SDS011;39101;53.478;6.158;2022-08-19T04:29:01;10.77;;;8.30;;
51499;SDS011;39101;53.478;6.158;2022-08-19T04:31:31;9.00;;;7.28;;
51499;SDS011;39101;53.478;6.158;2022-08-19T04:36:30;9.18;;;6.88;;
51499;SDS011;39101;53.478;6.158;2022-08-19T04:38:58;11.48;;;6.75;;
51499;SDS011;39101;53.478;6.158;2022-08-19T04:41:28;8.38;;;6.43;;
51499;SDS011;39101;53.478;6.158;2022-08-19T04:44:15;9.55;;;6.85;;
51499;SDS011;39101;53.478;6.158;2022-08-19T04:46:46;10.32;;;7.75;;
51499;SDS011;39101;53.478;6.158;2022-08-19T04:49:13;11.80;;;7.95;;
51499;SDS011;39101;53.478;6.158;2022-08-19T04:51:41;11.25;;;8.60;;
51499;SDS011;39101;53.478;6.158;2022-08-19T04:54:08;12.07;;;8.70;;
51499;SDS011;39101;53.478;6.158;2022-08-19T04:56:33;13.40;;;8.80;;
51499;SDS011;39101;53.478;6.158;2022-08-19T04:58:59;11.55;;;9.00;;
51499;SDS011;39101;53.478;6.158;2022-08-19T05:01:30;10.18;;;8.18;;
51499;SDS011;39101;53.478;6.158;2022-08-19T05:03:59;11.27;;;8.30;;
51499;SDS011;39101;53.478;6.158;2022-08-19T05:06:30;13.20;;;9.27;;
51499;SDS011;39101;53.478;6.158;2022-08-19T05:09:00;10.10;;;7.32;;
51499;SDS011;39101;53.478;6.158;2022-08-19T05:11:34;9.30;;;8.20;;
51499;SDS011;39101;53.478;6.158;2022-08-19T05:14:03;8.93;;;7.25;;
51499;SDS011;39101;53.478;6.158;2022-08-19T05:16:32;13.77;;;8.43;;
51499;SDS011;39101;53.478;6.158;2022-08-19T05:18:58;11.13;;;9.10;;
51499;SDS011;39101;53.478;6.158;2022-08-19T05:21:43;15.48;;;9.85;;
51499;SDS011;39101;53.478;6.158;2022-08-19T05:24:28;12.95;;;9.07;;
51499;SDS011;39101;53.478;6.158;2022-08-19T05:26:55;11.00;;;8.38;;
51499;SDS011;39101;53.478;6.158;2022-08-19T05:29:24;10.80;;;8.40;;
51499;SDS011;39101;53.478;6.158;2022-08-19T05:31:50;9.23;;;7.93;;
51499;SDS011;39101;53.478;6.158;2022-08-19T05:34:19;10.05;;;8.52;;
51499;SDS011;39101;53.478;6.158;2022-08-19T05:36:52;11.73;;;8.48;;
51499;SDS011;39101;53.478;6.158;2022-08-19T05:39:21;10.15;;;7.90;;
51499;SDS011;39101;53.478;6.158;2022-08-19T05:41:49;14.32;;;8.85;;
51499;SDS011;39101;53.478;6.158;2022-08-19T05:44:20;10.68;;;8.70;;
51499;SDS011;39101;53.478;6.158;2022-08-19T05:46:48;11.18;;;9.30;;
51499;SDS011;39101;53.478;6.158;2022-08-19T05:49:18;12.80;;;8.77;;
51499;SDS011;39101;53.478;6.158;2022-08-19T05:51:46;11.90;;;8.80;;
51499;SDS011;39101;53.478;6.158;2022-08-19T05:54:29;9.85;;;8.18;;
51499;SDS011;39101;53.478;6.158;2022-08-19T05:56:56;12.43;;;10.48;;
51499;SDS011;39101;53.478;6.158;2022-08-19T05:59:22;10.13;;;8.15;;
51499;SDS011;39101;53.478;6.158;2022-08-19T06:01:49;15.95;;;11.10;;
51499;SDS011;39101;53.478;6.158;2022-08-19T06:04:18;10.30;;;8.93;;
51499;SDS011;39101;53.478;6.158;2022-08-19T06:06:45;12.32;;;8.82;;
51499;SDS011;39101;53.478;6.158;2022-08-19T06:09:12;10.68;;;8.77;;
51499;SDS011;39101;53.478;6.158;2022-08-19T06:11:40;14.60;;;10.43;;
51499;SDS011;39101;53.478;6.158;2022-08-19T06:14:12;13.18;;;10.43;;
51499;SDS011;39101;53.478;6.158;2022-08-19T06:16:42;13.52;;;10.90;;
51499;SDS011;39101;53.478;6.158;2022-08-19T06:19:11;13.93;;;11.07;;
51499;SDS011;39101;53.478;6.158;2022-08-19T06:21:41;13.60;;;11.35;;
51499;SDS011;39101;53.478;6.158;2022-08-19T06:24:08;12.13;;;10.65;;
51499;SDS011;39101;53.478;6.158;2022-08-19T06:26:37;13.95;;;10.60;;
51499;SDS011;39101;53.478;6.158;2022-08-19T06:29:05;13.68;;;11.55;;
51499;SDS011;39101;53.478;6.158;2022-08-19T06:31:35;13.05;;;11.48;;
51499;SDS011;39101;53.478;6.158;2022-08-19T06:34:05;13.15;;;11.35;;
51499;SDS011;39101;53.478;6.158;2022-08-19T06:36:34;13.98;;;11.85;;
51499;SDS011;39101;53.478;6.158;2022-08-19T06:39:09;15.38;;;12.07;;
51499;SDS011;39101;53.478;6.158;2022-08-19T06:41:37;15.05;;;12.30;;
51499;SDS011;39101;53.478;6.158;2022-08-19T06:44:05;14.45;;;11.30;;
51499;SDS011;39101;53.478;6.158;2022-08-19T06:46:32;14.05;;;11.52;;
51499;SDS011;39101;53.478;6.158;2022-08-19T06:48:58;15.25;;;12.02;;
51499;SDS011;39101;53.478;6.158;2022-08-19T06:51:24;16.17;;;11.55;;
51499;SDS011;39101;53.478;6.158;2022-08-19T06:53:53;15.68;;;12.52;;
51499;SDS011;39101;53.478;6.158;2022-08-19T06:56:22;15.75;;;12.73;;
51499;SDS011;39101;53.478;6.158;2022-08-19T06:58:57;15.50;;;12.20;;
51499;SDS011;39101;53.478;6.158;2022-08-19T07:01:23;14.63;;;12.50;;
51499;SDS011;39101;53.478;6.158;2022-08-19T07:03:49;13.95;;;11.60;;
51499;SDS011;39101;53.478;6.158;2022-08-19T07:06:16;15.25;;;13.63;;
51499;SDS011;39101;53.478;6.158;2022-08-19T07:08:43;15.32;;;12.85;;
51499;SDS011;39101;53.478;6.158;2022-08-19T07:11:12;15.73;;;13.10;;
51499;SDS011;39101;53.478;6.158;2022-08-19T07:13:39;15.60;;;12.77;;
51499;SDS011;39101;53.478;6.158;2022-08-19T07:16:09;17.15;;;14.30;;
51499;SDS011;39101;53.478;6.158;2022-08-19T07:18:39;17.40;;;13.85;;
51499;SDS011;39101;53.478;6.158;2022-08-19T07:21:06;15.00;;;12.52;;
51499;SDS011;39101;53.478;6.158;2022-08-19T07:23:38;14.45;;;12.98;;
51499;SDS011;39101;53.478;6.158;2022-08-19T07:26:09;16.17;;;13.13;;
51499;SDS011;39101;53.478;6.158;2022-08-19T07:28:41;14.77;;;13.05;;
51499;SDS011;39101;53.478;6.158;2022-08-19T07:31:09;15.73;;;13.45;;
51499;SDS011;39101;53.478;6.158;2022-08-19T07:33:44;14.20;;;12.65;;
51499;SDS011;39101;53.478;6.158;2022-08-19T07:36:12;16.27;;;13.52;;
51499;SDS011;39101;53.478;6.158;2022-08-19T07:38:41;17.35;;;14.82;;
51499;SDS011;39101;53.478;6.158;2022-08-19T07:41:12;15.80;;;14.10;;
51499;SDS011;39101;53.478;6.158;2022-08-19T07:43:41;15.57;;;13.73;;
51499;SDS011;39101;53.478;6.158;2022-08-19T07:46:09;17.88;;;14.98;;
51499;SDS011;39101;53.478;6.158;2022-08-19T07:48:36;18.50;;;14.52;;
51499;SDS011;39101;53.478;6.158;2022-08-19T07:51:02;18.45;;;15.30;;
51499;SDS011;39101;53.478;6.158;2022-08-19T07:53:31;18.85;;;13.73;;
51499;SDS011;39101;53.478;6.158;2022-08-19T07:56:03;19.52;;;14.95;;
51499;SDS011;39101;53.478;6.158;2022-08-19T08:00:59;16.58;;;14.48;;
51499;SDS011;39101;53.478;6.158;2022-08-19T08:03:26;16.90;;;14.13;;
51499;SDS011;39101;53.478;6.158;2022-08-19T08:06:13;16.90;;;14.20;;
51499;SDS011;39101;53.478;6.158;2022-08-19T08:09:00;16.27;;;14.50;;
51499;SDS011;39101;53.478;6.158;2022-08-19T08:11:46;16.40;;;14.40;;
51499;SDS011;39101;53.478;6.158;2022-08-19T08:14:19;16.40;;;14.75;;
51499;SDS011;39101;53.478;6.158;2022-08-19T08:16:52;17.63;;;14.35;;
51499;SDS011;39101;53.478;6.158;2022-08-19T08:19:19;17.73;;;15.73;;
51499;SDS011;39101;53.478;6.158;2022-08-19T08:21:49;19.27;;;15.60;;
51499;SDS011;39101;53.478;6.158;2022-08-19T08:24:16;18.88;;;15.85;;
51499;SDS011;39101;53.478;6.158;2022-08-19T08:26:42;19.08;;;15.90;;
51499;SDS011;39101;53.478;6.158;2022-08-19T08:29:10;18.48;;;16.02;;
51499;SDS011;39101;53.478;6.158;2022-08-19T08:31:41;18.50;;;16.50;;
51499;SDS011;39101;53.478;6.158;2022-08-19T08:34:23;19.70;;;17.15;;
51499;SDS011;39101;53.478;6.158;2022-08-19T08:36:49;19.15;;;17.15;;
51499;SDS011;39101;53.478;6.158;2022-08-19T08:39:19;19.48;;;17.42;;
51499;SDS011;39101;53.478;6.158;2022-08-19T08:42:01;18.55;;;16.60;;
51499;SDS011;39101;53.478;6.158;2022-08-19T08:45:05;19.35;;;17.40;;
51499;SDS011;39101;53.478;6.158;2022-08-19T08:47:40;21.50;;;17.83;;
51499;SDS011;39101;53.478;6.158;2022-08-19T08:53:03;20.77;;;18.67;;
51499;SDS011;39101;53.478;6.158;2022-08-19T08:55:32;19.05;;;17.15;;
51499;SDS011;39101;53.478;6.158;2022-08-19T08:58:09;20.42;;;18.42;;
51499;SDS011;39101;53.478;6.158;2022-08-19T09:01:08;19.65;;;17.50;;
51499;SDS011;39101;53.478;6.158;2022-08-19T09:03:36;22.67;;;19.63;;
51499;SDS011;39101;53.478;6.158;2022-08-19T09:06:36;19.83;;;17.83;;
51499;SDS011;39101;53.478;6.158;2022-08-19T09:09:17;20.63;;;18.25;;
51499;SDS011;39101;53.478;6.158;2022-08-19T09:12:00;19.92;;;17.58;;
51499;SDS011;39101;53.478;6.158;2022-08-19T09:14:46;21.63;;;18.02;;
51499;SDS011;39101;53.478;6.158;2022-08-19T09:17:17;26.38;;;19.95;;
51499;SDS011;39101;53.478;6.158;2022-08-19T09:19:55;20.65;;;18.55;;
51499;SDS011;39101;53.478;6.158;2022-08-19T09:22:25;21.27;;;18.77;;
51499;SDS011;39101;53.478;6.158;2022-08-19T09:24:53;22.83;;;18.92;;
51499;SDS011;39101;53.478;6.158;2022-08-19T09:27:20;21.80;;;19.48;;
51499;SDS011;39101;53.478;6.158;2022-08-19T09:29:49;22.00;;;18.98;;
51499;SDS011;39101;53.478;6.158;2022-08-19T09:32:15;21.90;;;19.73;;
51499;SDS011;39101;53.478;6.158;2022-08-19T09:34:43;22.35;;;20.08;;
51499;SDS011;39101;53.478;6.158;2022-08-19T09:37:09;24.83;;;21.88;;
51499;SDS011;39101;53.478;6.158;2022-08-19T09:39:37;23.35;;;20.85;;
51499;SDS011;39101;53.478;6.158;2022-08-19T09:42:04;22.88;;;20.55;;
51499;SDS011;39101;53.478;6.158;2022-08-19T09:46:59;23.63;;;21.25;;
51499;SDS011;39101;53.478;6.158;2022-08-19T09:49:25;23.73;;;20.75;;
51499;SDS011;39101;53.478;6.158;2022-08-19T09:51:53;25.38;;;22.88;;
51499;SDS011;39101;53.478;6.158;2022-08-19T09:54:23;25.13;;;22.63;;
51499;SDS011;39101;53.478;6.158;2022-08-19T09:56:49;25.15;;;22.63;;
51499;SDS011;39101;53.478;6.158;2022-08-19T09:59:15;25.55;;;23.08;;
51499;SDS011;39101;53.478;6.158;2022-08-19T10:01:41;27.65;;;24.88;;
51499;SDS011;39101;53.478;6.158;2022-08-19T10:04:07;27.70;;;24.92;;
51499;SDS011;39101;53.478;6.158;2022-08-19T10:06:33;28.58;;;25.73;;
51499;SDS011;39101;53.478;6.158;2022-08-19T10:09:02;30.77;;;27.77;;
51499;SDS011;39101;53.478;6.158;2022-08-19T10:11:33;30.58;;;27.52;;
51499;SDS011;39101;53.478;6.158;2022-08-19T10:14:00;30.52;;;27.52;;
51499;SDS011;39101;53.478;6.158;2022-08-19T10:16:26;32.72;;;29.42;;
51499;SDS011;39101;53.478;6.158;2022-08-19T10:18:54;33.97;;;30.88;;
51499;SDS011;39101;53.478;6.158;2022-08-19T10:21:27;30.35;;;27.42;;
51499;SDS011;39101;53.478;6.158;2022-08-19T10:23:55;31.00;;;27.98;;
51499;SDS011;39101;53.478;6.158;2022-08-19T10:26:25;31.60;;;28.70;;
51499;SDS011;39101;53.478;6.158;2022-08-19T10:28:55;32.90;;;29.70;;
51499;SDS011;39101;53.478;6.158;2022-08-19T10:31:26;32.17;;;29.17;;
51499;SDS011;39101;53.478;6.158;2022-08-19T10:33:55;32.25;;;29.20;;
51499;SDS011;39101;53.478;6.158;2022-08-19T10:38:52;34.10;;;30.65;;
51499;SDS011;39101;53.478;6.158;2022-08-19T10:41:21;34.13;;;30.65;;
51499;SDS011;39101;53.478;6.158;2022-08-19T10:43:50;33.42;;;30.27;;
51499;SDS011;39101;53.478;6.158;2022-08-19T10:46:19;30.08;;;26.65;;
51499;SDS011;39101;53.478;6.158;2022-08-19T10:48:48;31.05;;;25.70;;
51499;SDS011;39101;53.478;6.158;2022-08-19T10:51:14;29.33;;;23.75;;
51499;SDS011;39101;53.478;6.158;2022-08-19T10:53:59;25.50;;;22.75;;
51499;SDS011;39101;53.478;6.158;2022-08-19T10:56:26;28.80;;;21.15;;
51499;SDS011;39101;53.478;6.158;2022-08-19T10:59:11;25.30;;;21.05;;
51499;SDS011;39101;53.478;6.158;2022-08-19T11:01:39;27.65;;;20.50;;
51499;SDS011;39101;53.478;6.158;2022-08-19T11:04:06;24.00;;;19.90;;
51499;SDS011;39101;53.478;6.158;2022-08-19T11:06:36;29.30;;;21.67;;
51499;SDS011;39101;53.478;6.158;2022-08-19T11:09:04;25.45;;;20.45;;
51499;SDS011;39101;53.478;6.158;2022-08-19T11:11:30;26.38;;;20.13;;
51499;SDS011;39101;53.478;6.158;2022-08-19T11:13:57;26.98;;;20.33;;
51499;SDS011;39101;53.478;6.158;2022-08-19T11:16:24;27.40;;;20.42;;
51499;SDS011;39101;53.478;6.158;2022-08-19T11:18:56;27.40;;;21.13;;
51499;SDS011;39101;53.478;6.158;2022-08-19T11:21:28;28.65;;;19.90;;
51499;SDS011;39101;53.478;6.158;2022-08-19T11:24:02;26.83;;;19.75;;
51499;SDS011;39101;53.478;6.158;2022-08-19T11:26:31;22.13;;;18.67;;
51499;SDS011;39101;53.478;6.158;2022-08-19T11:28:59;21.73;;;18.45;;
51499;SDS011;39101;53.478;6.158;2022-08-19T11:31:30;27.65;;;19.00;;
51499;SDS011;39101;53.478;6.158;2022-08-19T11:33:59;23.52;;;17.48;;
51499;SDS011;39101;53.478;6.158;2022-08-19T11:38:54;23.33;;;14.65;;
51499;SDS011;39101;53.478;6.158;2022-08-19T11:41:20;20.30;;;14.75;;
51499;SDS011;39101;53.478;6.158;2022-08-19T11:43:48;21.95;;;15.00;;
51499;SDS011;39101;53.478;6.158;2022-08-19T11:46:15;19.13;;;13.82;;
51499;SDS011;39101;53.478;6.158;2022-08-19T11:48:45;14.87;;;11.90;;
51499;SDS011;39101;53.478;6.158;2022-08-19T11:51:18;16.73;;;10.80;;
51499;SDS011;39101;53.478;6.158;2022-08-19T11:53:46;14.20;;;10.30;;
51499;SDS011;39101;53.478;6.158;2022-08-19T11:56:12;18.83;;;11.57;;
51499;SDS011;39101;53.478;6.158;2022-08-19T11:58:41;21.10;;;10.68;;
51499;SDS011;39101;53.478;6.158;2022-08-19T12:01:08;19.73;;;10.90;;
51499;SDS011;39101;53.478;6.158;2022-08-19T12:03:35;15.57;;;11.50;;
51499;SDS011;39101;53.478;6.158;2022-08-19T12:06:08;17.08;;;11.77;;
51499;SDS011;39101;53.478;6.158;2022-08-19T12:08:37;19.65;;;11.75;;
51499;SDS011;39101;53.478;6.158;2022-08-19T12:11:03;19.85;;;11.48;;
51499;SDS011;39101;53.478;6.158;2022-08-19T12:13:30;15.40;;;11.80;;
51499;SDS011;39101;53.478;6.158;2022-08-19T12:15:56;16.58;;;10.90;;
51499;SDS011;39101;53.478;6.158;2022-08-19T12:18:23;17.08;;;11.25;;
51499;SDS011;39101;53.478;6.158;2022-08-19T12:20:52;18.63;;;12.25;;
51499;SDS011;39101;53.478;6.158;2022-08-19T12:23:22;18.50;;;11.70;;
51499;SDS011;39101;53.478;6.158;2022-08-19T12:25:48;17.48;;;10.38;;
51499;SDS011;39101;53.478;6.158;2022-08-19T12:28:20;21.15;;;11.70;;
51499;SDS011;39101;53.478;6.158;2022-08-19T12:30:48;16.98;;;11.77;;
51499;SDS011;39101;53.478;6.158;2022-08-19T12:33:20;14.82;;;10.70;;
51499;SDS011;39101;53.478;6.158;2022-08-19T12:35:52;18.42;;;11.05;;
51499;SDS011;39101;53.478;6.158;2022-08-19T12:38:18;22.00;;;12.80;;
51499;SDS011;39101;53.478;6.158;2022-08-19T12:40:45;24.10;;;14.23;;
51499;SDS011;39101;53.478;6.158;2022-08-19T12:43:12;23.38;;;11.95;;
51499;SDS011;39101;53.478;6.158;2022-08-19T12:45:38;17.00;;;10.38;;
51499;SDS011;39101;53.478;6.158;2022-08-19T12:48:04;20.42;;;11.40;;
51499;SDS011;39101;53.478;6.158;2022-08-19T12:50:30;17.15;;;11.40;;
51499;SDS011;39101;53.478;6.158;2022-08-19T12:52:57;17.85;;;12.77;;
51499;SDS011;39101;53.478;6.158;2022-08-19T12:55:24;17.25;;;11.93;;
51499;SDS011;39101;53.478;6.158;2022-08-19T12:57:51;20.98;;;12.95;;
51499;SDS011;39101;53.478;6.158;2022-08-19T13:00:18;21.75;;;12.70;;
51499;SDS011;39101;53.478;6.158;2022-08-19T13:02:50;20.15;;;12.85;;
51499;SDS011;39101;53.478;6.158;2022-08-19T13:05:20;19.02;;;12.00;;
51499;SDS011;39101;53.478;6.158;2022-08-19T13:07:48;18.63;;;10.37;;
51499;SDS011;39101;53.478;6.158;2022-08-19T13:10:17;19.42;;;12.55;;
51499;SDS011;39101;53.478;6.158;2022-08-19T13:12:46;19.92;;;11.63;;
51499;SDS011;39101;53.478;6.158;2022-08-19T13:15:14;21.17;;;12.52;;
51499;SDS011;39101;53.478;6.158;2022-08-19T13:17:45;23.50;;;12.85;;
51499;SDS011;39101;53.478;6.158;2022-08-19T13:20:14;16.13;;;9.80;;
51499;SDS011;39101;53.478;6.158;2022-08-19T13:22:41;17.40;;;11.50;;
51499;SDS011;39101;53.478;6.158;2022-08-19T13:25:07;19.92;;;12.85;;
51499;SDS011;39101;53.478;6.158;2022-08-19T13:27:34;18.00;;;12.40;;
51499;SDS011;39101;53.478;6.158;2022-08-19T13:30:02;22.05;;;13.82;;
51499;SDS011;39101;53.478;6.158;2022-08-19T13:32:49;20.38;;;13.95;;
51499;SDS011;39101;53.478;6.158;2022-08-19T13:35:33;20.92;;;12.23;;
51499;SDS011;39101;53.478;6.158;2022-08-19T13:37:59;17.25;;;11.07;;
51499;SDS011;39101;53.478;6.158;2022-08-19T13:40:30;17.50;;;12.27;;
51499;SDS011;39101;53.478;6.158;2022-08-19T13:43:00;14.55;;;11.40;;
51499;SDS011;39101;53.478;6.158;2022-08-19T13:45:29;14.88;;;11.65;;
51499;SDS011;39101;53.478;6.158;2022-08-19T13:47:59;17.20;;;10.90;;
51499;SDS011;39101;53.478;6.158;2022-08-19T13:50:30;15.65;;;11.25;;
51499;SDS011;39101;53.478;6.158;2022-08-19T13:52:56;14.57;;;10.13;;
51499;SDS011;39101;53.478;6.158;2022-08-19T13:55:23;18.60;;;11.82;;
51499;SDS011;39101;53.478;6.158;2022-08-19T13:57:57;19.85;;;12.82;;
51499;SDS011;39101;53.478;6.158;2022-08-19T14:00:27;18.58;;;11.25;;
51499;SDS011;39101;53.478;6.158;2022-08-19T14:02:56;14.50;;;12.25;;
51499;SDS011;39101;53.478;6.158;2022-08-19T14:05:22;14.82;;;10.82;;
51499;SDS011;39101;53.478;6.158;2022-08-19T14:07:51;16.85;;;10.63;;
51499;SDS011;39101;53.478;6.158;2022-08-19T14:10:18;15.10;;;10.80;;
51499;SDS011;39101;53.478;6.158;2022-08-19T14:12:44;14.30;;;9.95;;
51499;SDS011;39101;53.478;6.158;2022-08-19T14:15:11;17.33;;;10.68;;
51499;SDS011;39101;53.478;6.158;2022-08-19T14:17:40;15.77;;;10.60;;
51499;SDS011;39101;53.478;6.158;2022-08-19T14:20:23;12.32;;;9.82;;
51499;SDS011;39101;53.478;6.158;2022-08-19T14:22:49;12.27;;;9.77;;
51499;SDS011;39101;53.478;6.158;2022-08-19T14:25:18;14.88;;;10.30;;
51499;SDS011;39101;53.478;6.158;2022-08-19T14:27:46;13.45;;;8.88;;
51499;SDS011;39101;53.478;6.158;2022-08-19T14:30:14;16.70;;;10.27;;
51499;SDS011;39101;53.478;6.158;2022-08-19T14:32:45;13.88;;;10.27;;
51499;SDS011;39101;53.478;6.158;2022-08-19T14:35:11;14.95;;;11.20;;
51499;SDS011;39101;53.478;6.158;2022-08-19T14:37:40;15.63;;;9.77;;
51499;SDS011;39101;53.478;6.158;2022-08-19T14:40:07;18.23;;;10.80;;
51499;SDS011;39101;53.478;6.158;2022-08-19T14:42:34;16.23;;;11.20;;
51499;SDS011;39101;53.478;6.158;2022-08-19T14:45:01;13.32;;;9.02;;
51499;SDS011;39101;53.478;6.158;2022-08-19T14:47:27;13.07;;;9.77;;
51499;SDS011;39101;53.478;6.158;2022-08-19T14:49:53;15.88;;;10.00;;
51499;SDS011;39101;53.478;6.158;2022-08-19T14:52:19;15.20;;;11.30;;
51499;SDS011;39101;53.478;6.158;2022-08-19T14:54:46;16.10;;;9.88;;
51499;SDS011;39101;53.478;6.158;2022-08-19T14:57:12;15.07;;;9.25;;
51499;SDS011;39101;53.478;6.158;2022-08-19T14:59:40;13.38;;;9.65;;
51499;SDS011;39101;53.478;6.158;2022-08-19T15:02:10;15.05;;;11.38;;
51499;SDS011;39101;53.478;6.158;2022-08-19T15:04:36;16.23;;;8.75;;
51499;SDS011;39101;53.478;6.158;2022-08-19T15:07:03;15.55;;;10.23;;
51499;SDS011;39101;53.478;6.158;2022-08-19T15:09:30;14.55;;;10.75;;